createdAt,value
2018-12-15T00:00:42.092Z,33.57
2018-12-15T00:03:12.917Z,32.60
2018-12-15T00:05:42.673Z,35.93
2018-12-15T00:08:12.718Z,35.43
2018-12-15T00:10:43.519Z,35.13
2018-12-15T00:13:13.037Z,32.93
2018-12-15T00:15:45.866Z,29.80
2018-12-15T00:18:15.174Z,40.20
2018-12-15T00:20:43.776Z,34.40
2018-12-15T00:23:12.794Z,37.77
2018-12-15T00:25:42.842Z,36.17
2018-12-15T00:28:13.773Z,36.10
2018-12-15T00:30:42.410Z,37.90
2018-12-15T00:33:12.296Z,33.20
2018-12-15T00:35:40.843Z,37.87
2018-12-15T00:38:09.236Z,41.53
2018-12-15T00:40:37.729Z,34.03
2018-12-15T00:43:06.498Z,40.53
2018-12-15T00:45:36.083Z,34.93
2018-12-15T00:48:04.477Z,34.83
2018-12-15T00:50:33.103Z,40.30
2018-12-15T00:53:02.533Z,34.60
2018-12-15T00:55:32.861Z,32.37
2018-12-15T00:58:01.513Z,30.33
2018-12-15T01:00:30.273Z,33.83
2018-12-15T01:02:58.563Z,36.50
2018-12-15T01:05:28.073Z,39.13
2018-12-15T01:07:56.528Z,30.27
2018-12-15T01:10:25.627Z,35.13
2018-12-15T01:12:54.358Z,39.47
2018-12-15T01:15:28.572Z,36.43
2018-12-15T01:17:57.801Z,37.53
2018-12-15T01:20:27.155Z,34.70
2018-12-15T01:22:55.558Z,32.77
2018-12-15T01:25:24.381Z,32.90
2018-12-15T01:27:52.873Z,32.43
2018-12-15T01:30:21.349Z,34.83
2018-12-15T01:32:49.897Z,36.57
2018-12-15T01:35:18.817Z,32.20
2018-12-15T01:37:47.349Z,33.87
2018-12-15T01:40:15.939Z,34.03
2018-12-15T01:42:44.550Z,34.33
2018-12-15T01:45:13.934Z,34.93
2018-12-15T01:47:42.416Z,35.90
2018-12-15T01:50:10.956Z,31.97
2018-12-15T01:52:39.526Z,34.30
2018-12-15T01:55:09.150Z,32.10
2018-12-15T01:57:37.734Z,34.03
2018-12-15T02:00:07.836Z,30.10
2018-12-15T02:02:36.478Z,34.57
2018-12-15T02:05:05.491Z,33.60
2018-12-15T02:07:33.981Z,36.87
2018-12-15T02:10:02.405Z,33.23
2018-12-15T02:12:31.495Z,33.43
2018-12-15T02:15:00.002Z,39.10
2018-12-15T02:17:33.652Z,35.00
2018-12-15T02:19:59.052Z,34.70
2018-12-15T02:22:28.208Z,35.70
2018-12-15T02:24:56.683Z,35.30
2018-12-15T02:27:25.952Z,35.57
2018-12-15T02:29:55.339Z,33.40
2018-12-15T02:32:23.842Z,35.00
2018-12-15T02:34:53.044Z,35.73
2018-12-15T02:37:21.705Z,39.60
2018-12-15T02:39:51.096Z,38.27
2018-12-15T02:42:20.119Z,29.73
2018-12-15T02:44:48.537Z,34.93
2018-12-15T02:47:17.026Z,34.10
2018-12-15T02:49:45.714Z,35.50
2018-12-15T02:52:14.126Z,31.63
2018-12-15T02:54:42.591Z,38.33
2018-12-15T02:57:11.133Z,37.87
2018-12-15T02:59:40.502Z,36.90
2018-12-15T03:02:08.891Z,33.70
2018-12-15T03:04:37.345Z,35.83
2018-12-15T03:07:05.965Z,34.30
2018-12-15T03:09:34.439Z,36.20
2018-12-15T03:12:02.988Z,36.27
2018-12-15T03:14:31.671Z,38.70
2018-12-15T03:17:07.552Z,32.03
2018-12-15T03:19:36.986Z,36.00
2018-12-15T03:22:05.866Z,32.40
2018-12-15T03:24:35.398Z,32.27
2018-12-15T03:27:04.049Z,31.73
2018-12-15T03:29:33.258Z,39.77
2018-12-15T03:32:02.262Z,43.43
2018-12-15T03:34:31.924Z,36.17
2018-12-15T03:37:01.627Z,35.77
2018-12-15T03:39:30.560Z,40.80
2018-12-15T03:41:59.801Z,39.10
2018-12-15T03:44:28.690Z,37.57
2018-12-15T03:46:58.377Z,37.40
2018-12-15T03:49:27.614Z,41.13
2018-12-15T03:51:56.364Z,34.07
2018-12-15T03:54:25.210Z,37.17
2018-12-15T03:56:55.273Z,35.37
2018-12-15T03:59:24.617Z,36.83
2018-12-15T04:01:53.569Z,37.10
2018-12-15T04:04:23.229Z,35.30
2018-12-15T04:06:51.878Z,36.30
2018-12-15T04:09:20.337Z,33.03
2018-12-15T04:11:49.159Z,34.07
2018-12-15T04:14:18.206Z,34.67
2018-12-15T04:16:47.550Z,35.10
2018-12-15T04:19:16.475Z,35.00
2018-12-15T04:21:46.267Z,35.40
2018-12-15T04:24:18.247Z,34.20
2018-12-15T04:26:48.135Z,31.53
2018-12-15T04:29:20.567Z,32.63
2018-12-15T04:31:49.375Z,36.77
2018-12-15T04:34:18.236Z,36.60
2018-12-15T04:36:47.160Z,34.20
2018-12-15T04:39:17.937Z,37.73
2018-12-15T04:41:46.847Z,33.80
2018-12-15T04:44:16.128Z,34.13
2018-12-15T04:46:47.065Z,35.60
2018-12-15T04:49:15.820Z,33.90
2018-12-15T04:51:44.550Z,30.97
2018-12-15T04:54:13.930Z,33.70
2018-12-15T04:56:44.855Z,36.53
2018-12-15T04:59:13.358Z,33.77
2018-12-15T05:01:41.774Z,34.27
2018-12-15T05:04:11.524Z,36.17
2018-12-15T05:06:41.281Z,37.83
2018-12-15T05:09:09.657Z,33.43
2018-12-15T05:11:38.255Z,34.60
2018-12-15T05:14:06.672Z,32.53
2018-12-15T05:16:35.174Z,36.53
2018-12-15T05:19:03.756Z,36.37
2018-12-15T05:21:32.130Z,34.60
2018-12-15T05:24:00.688Z,31.63
2018-12-15T05:26:29.202Z,36.20
2018-12-15T05:28:57.761Z,37.13
2018-12-15T05:31:27.023Z,35.77
2018-12-15T05:33:56.134Z,35.53
2018-12-15T05:36:24.753Z,30.80
2018-12-15T05:38:53.179Z,32.80
2018-12-15T05:41:25.931Z,31.90
2018-12-15T05:43:55.050Z,32.73
2018-12-15T05:46:23.448Z,34.50
2018-12-15T05:48:51.949Z,36.83
2018-12-15T05:51:20.473Z,34.90
2018-12-15T05:53:48.922Z,30.80
2018-12-15T05:56:17.610Z,31.07
2018-12-15T05:58:46.076Z,32.13
2018-12-15T06:01:14.829Z,33.00
2018-12-15T06:03:43.247Z,38.17
2018-12-15T06:06:12.945Z,34.20
2018-12-15T06:08:41.851Z,35.67
2018-12-15T06:11:10.153Z,36.53
2018-12-15T06:13:38.500Z,31.63
2018-12-15T06:16:08.048Z,30.80
2018-12-15T06:18:36.378Z,31.87
2018-12-15T06:21:05.192Z,31.03
2018-12-15T06:23:34.192Z,32.50
2018-12-15T06:26:03.311Z,28.37
2018-12-15T06:28:31.740Z,31.87
2018-12-15T06:31:00.133Z,30.30
2018-12-15T06:33:29.329Z,29.70
2018-12-15T06:35:59.571Z,27.87
2018-12-15T06:38:28.311Z,31.30
2018-12-15T06:40:56.851Z,29.37
2018-12-15T06:43:28.695Z,32.00
2018-12-15T06:45:58.152Z,29.03
2018-12-15T06:48:27.067Z,27.97
2018-12-15T06:50:56.078Z,27.23
2018-12-15T06:53:24.418Z,28.90
2018-12-15T06:55:55.664Z,29.90
2018-12-15T06:58:24.488Z,26.77
2018-12-15T07:00:52.851Z,29.30
2018-12-15T07:03:23.131Z,30.33
2018-12-15T07:05:52.867Z,28.60
2018-12-15T07:08:21.358Z,30.53
2018-12-15T07:10:49.916Z,30.00
2018-12-15T07:13:18.497Z,31.60
2018-12-15T07:15:47.360Z,29.03
2018-12-15T07:18:15.813Z,28.47
2018-12-15T07:20:57.375Z,32.43
2018-12-15T07:23:26.625Z,27.57
2018-12-15T07:25:55.893Z,29.00
2018-12-15T07:28:24.361Z,25.70
2018-12-15T07:30:53.058Z,30.20
2018-12-15T07:33:22.762Z,27.60
2018-12-15T07:35:52.070Z,26.73
2018-12-15T07:38:20.402Z,24.23
2018-12-15T07:40:48.742Z,26.13
2018-12-15T07:43:18.234Z,25.23
2018-12-15T07:45:47.020Z,24.70
2018-12-15T07:48:15.665Z,25.57
2018-12-15T07:50:44.654Z,24.87
2018-12-15T07:53:13.694Z,27.60
2018-12-15T07:55:42.513Z,23.87
2018-12-15T07:58:11.359Z,22.10
2018-12-15T08:00:40.141Z,27.23
2018-12-15T08:03:09.015Z,28.40
2018-12-15T08:05:38.443Z,24.80
2018-12-15T08:08:06.858Z,23.33
2018-12-15T08:10:41.510Z,25.10
2018-12-15T08:13:14.631Z,29.73
2018-12-15T08:18:19.161Z,28.07
2018-12-15T08:20:47.598Z,25.20
2018-12-15T08:23:15.894Z,25.23
2018-12-15T08:25:44.139Z,26.47
2018-12-15T08:28:12.498Z,26.73
2018-12-15T08:30:41.079Z,24.40
2018-12-15T08:33:09.708Z,29.37
2018-12-15T08:35:38.737Z,24.20
2018-12-15T08:38:07.042Z,24.57
2018-12-15T08:40:35.520Z,24.33
2018-12-15T08:43:04.465Z,24.33
2018-12-15T08:45:32.859Z,26.00
2018-12-15T08:48:01.368Z,25.33
2018-12-15T08:50:30.469Z,29.50
2018-12-15T08:52:59.807Z,27.47
2018-12-15T08:55:29.018Z,26.77
2018-12-15T08:57:58.890Z,25.20
2018-12-15T09:00:27.295Z,23.03
2018-12-15T09:02:56.533Z,24.50
2018-12-15T09:05:25.841Z,26.37
2018-12-15T09:07:54.237Z,31.00
2018-12-15T09:10:22.872Z,27.60
2018-12-15T09:12:54.475Z,25.73
2018-12-15T09:15:25.351Z,27.63
2018-12-15T09:17:58.415Z,25.50
2018-12-15T09:20:27.371Z,22.10
2018-12-15T09:22:56.461Z,28.60
2018-12-15T09:25:24.739Z,25.97
2018-12-15T09:27:53.136Z,25.93
2018-12-15T09:30:21.881Z,24.00
2018-12-15T09:32:51.259Z,23.23
2018-12-15T09:35:19.748Z,22.63
2018-12-15T09:37:50.845Z,24.00
2018-12-15T09:40:19.198Z,26.03
2018-12-15T09:42:47.660Z,23.00
2018-12-15T09:45:15.939Z,24.57
2018-12-15T09:47:44.585Z,22.97
2018-12-15T09:50:13.248Z,22.80
2018-12-15T09:52:41.591Z,19.57
2018-12-15T09:55:11.001Z,17.73
2018-12-15T10:00:18.095Z,20.70
2018-12-15T10:02:47.024Z,20.57
2018-12-15T10:05:15.392Z,19.57
2018-12-15T10:07:43.839Z,19.43
2018-12-15T10:10:12.942Z,21.37
2018-12-15T10:12:41.362Z,23.33
2018-12-15T10:15:09.705Z,19.97
2018-12-15T10:17:38.190Z,19.83
2018-12-15T10:20:13.118Z,20.40
2018-12-15T10:22:41.713Z,22.33
2018-12-15T10:25:10.244Z,21.27
2018-12-15T10:27:38.737Z,20.27
2018-12-15T10:30:13.586Z,19.30
2018-12-15T10:32:50.692Z,21.33
2018-12-15T10:35:19.868Z,21.87
2018-12-15T10:37:48.676Z,22.60
2018-12-15T10:40:17.308Z,18.07
2018-12-15T10:42:45.797Z,21.87
2018-12-15T10:45:14.283Z,24.23
2018-12-15T10:47:43.033Z,18.00
2018-12-15T10:50:12.285Z,20.47
2018-12-15T10:52:40.758Z,20.33
2018-12-15T10:55:09.745Z,21.10
2018-12-15T10:57:38.231Z,22.73
2018-12-15T11:00:16.300Z,22.97
2018-12-15T11:02:44.688Z,23.43
2018-12-15T11:05:13.061Z,20.07
2018-12-15T11:07:41.442Z,18.00
2018-12-15T11:10:10.916Z,19.53
2018-12-15T11:12:39.393Z,19.63
2018-12-15T11:15:08.642Z,18.50
2018-12-15T11:17:37.196Z,21.33
2018-12-15T11:20:06.742Z,18.40
2018-12-15T11:25:13.765Z,20.50
2018-12-15T11:27:42.038Z,19.10
2018-12-15T11:30:10.519Z,20.33
2018-12-15T11:32:39.018Z,20.27
2018-12-15T11:35:07.362Z,18.23
2018-12-15T11:37:35.672Z,28.60
2018-12-15T11:40:04.736Z,18.90
2018-12-15T11:42:33.011Z,18.03
2018-12-15T11:45:01.288Z,19.90
2018-12-15T11:47:29.701Z,18.60
2018-12-15T11:49:58.083Z,21.67
2018-12-15T11:52:26.559Z,17.90
2018-12-15T11:54:54.874Z,17.97
2018-12-15T11:57:23.238Z,21.03
2018-12-15T11:59:51.833Z,19.63
2018-12-15T12:02:20.084Z,21.77
2018-12-15T12:04:48.414Z,18.40
2018-12-15T12:07:16.713Z,20.00
2018-12-15T12:09:44.935Z,21.10
2018-12-15T12:12:13.295Z,19.07
2018-12-15T12:14:41.556Z,18.40
2018-12-15T12:17:09.894Z,20.10
2018-12-15T12:19:39.450Z,17.87
2018-12-15T12:22:07.798Z,18.67
2018-12-15T12:24:36.210Z,24.20
2018-12-15T12:27:04.490Z,19.47
2018-12-15T12:29:32.911Z,18.73
2018-12-15T12:32:01.111Z,19.97
2018-12-15T12:34:29.378Z,21.90
2018-12-15T12:36:57.858Z,20.77
2018-12-15T12:39:26.106Z,20.63
2018-12-15T12:41:54.322Z,22.43
2018-12-15T12:44:22.667Z,17.03
2018-12-15T12:46:51.313Z,20.30
2018-12-15T12:49:19.622Z,20.63
2018-12-15T12:51:48.092Z,24.97
2018-12-15T12:54:16.342Z,23.57
2018-12-15T12:56:44.628Z,21.33
2018-12-15T12:59:13.099Z,18.10
2018-12-15T13:01:41.490Z,21.30
2018-12-15T13:04:09.868Z,22.83
2018-12-15T13:06:38.852Z,22.43
2018-12-15T13:09:07.559Z,18.70
2018-12-15T13:11:35.840Z,22.40
2018-12-15T13:14:04.370Z,22.37
2018-12-15T13:16:32.766Z,18.50
2018-12-15T13:19:01.220Z,19.00
2018-12-15T13:21:29.627Z,21.63
2018-12-15T13:23:57.946Z,21.60
2018-12-15T13:26:26.285Z,22.03
2018-12-15T13:28:54.713Z,20.93
2018-12-15T13:31:23.023Z,21.13
2018-12-15T13:33:52.158Z,23.50
2018-12-15T13:36:20.738Z,22.20
2018-12-15T13:38:49.018Z,21.83
2018-12-15T13:41:17.307Z,22.17
2018-12-15T13:43:45.737Z,23.67
2018-12-15T13:46:14.069Z,22.00
2018-12-15T13:48:42.383Z,25.30
2018-12-15T13:51:10.764Z,21.80
2018-12-15T13:53:39.490Z,22.40
2018-12-15T13:56:07.723Z,23.97
2018-12-15T13:58:36.131Z,22.73
2018-12-15T14:01:05.321Z,21.67
2018-12-15T14:03:46.175Z,23.10
2018-12-15T14:06:14.473Z,23.80
2018-12-15T14:08:42.880Z,22.80
2018-12-15T14:11:11.302Z,22.60
2018-12-15T14:13:39.952Z,22.63
2018-12-15T14:16:08.203Z,22.80
2018-12-15T14:18:36.864Z,23.60
2018-12-15T14:21:05.210Z,23.00
2018-12-15T14:23:33.485Z,22.73
2018-12-15T14:26:04.645Z,23.87
2018-12-15T14:28:33.794Z,24.60
2018-12-15T14:31:02.795Z,25.63
2018-12-15T14:33:31.300Z,25.90
2018-12-15T14:35:59.751Z,24.30
2018-12-15T14:38:28.108Z,23.80
2018-12-15T14:40:56.433Z,25.03
2018-12-15T14:43:24.995Z,24.13
2018-12-15T14:45:53.331Z,21.40
2018-12-15T14:48:21.734Z,25.03
2018-12-15T14:50:50.356Z,27.13
2018-12-15T14:53:18.834Z,25.60
2018-12-15T14:55:47.306Z,27.43
2018-12-15T14:58:15.705Z,26.50
2018-12-15T15:00:44.070Z,26.57
2018-12-15T15:03:12.644Z,25.50
2018-12-15T15:05:40.974Z,25.60
2018-12-15T15:08:09.332Z,23.30
2018-12-15T15:10:37.717Z,23.10
2018-12-15T15:13:06.022Z,25.57
2018-12-15T15:15:34.551Z,23.93
2018-12-15T15:18:03.004Z,24.73
2018-12-15T15:20:31.315Z,25.60
2018-12-15T15:22:59.525Z,24.23
2018-12-15T15:25:27.946Z,25.20
2018-12-15T15:27:56.305Z,27.37
2018-12-15T15:30:24.514Z,25.43
2018-12-15T15:32:52.866Z,24.07
2018-12-15T15:35:21.109Z,25.27
2018-12-15T15:37:49.556Z,24.17
2018-12-15T15:40:17.973Z,24.47
2018-12-15T15:42:46.433Z,24.13
2018-12-15T15:45:14.896Z,26.20
2018-12-15T15:47:43.233Z,25.33
2018-12-15T15:50:11.781Z,22.80
2018-12-15T15:52:40.163Z,26.30
2018-12-15T15:55:08.772Z,27.60
2018-12-15T15:57:37.311Z,25.30
2018-12-15T16:00:08.071Z,24.40
2018-12-15T16:02:36.410Z,26.73
2018-12-15T16:05:05.617Z,26.60
2018-12-15T16:07:34.634Z,26.27
2018-12-15T16:10:03.826Z,27.27
2018-12-15T16:12:32.417Z,23.30
2018-12-15T16:15:00.822Z,30.10
2018-12-15T16:17:29.305Z,20.07
2018-12-15T16:19:58.379Z,30.43
2018-12-15T16:22:27.623Z,26.47
2018-12-15T16:24:56.067Z,28.27
2018-12-15T16:27:24.683Z,26.20
2018-12-15T16:29:53.300Z,25.20
2018-12-15T16:32:21.960Z,25.43
2018-12-15T16:34:50.350Z,26.40
2018-12-15T16:37:18.885Z,28.40
2018-12-15T16:39:47.570Z,26.13
2018-12-15T16:42:16.046Z,28.53
2018-12-15T16:44:45.190Z,29.30
2018-12-15T16:47:14.266Z,25.37
2018-12-15T16:49:43.502Z,25.47
2018-12-15T16:52:13.477Z,28.73
2018-12-15T16:54:42.282Z,24.80
2018-12-15T16:57:11.195Z,26.70
2018-12-15T16:59:42.125Z,27.87
2018-12-15T17:02:10.576Z,26.80
2018-12-15T17:04:39.047Z,24.60
2018-12-15T17:07:08.040Z,27.80
2018-12-15T17:09:39.390Z,26.63
2018-12-15T17:12:08.092Z,28.73
2018-12-15T17:14:38.439Z,27.60
2018-12-15T17:17:06.880Z,25.77
2018-12-15T17:19:38.537Z,28.50
2018-12-15T17:22:08.188Z,25.67
2018-12-15T17:24:37.129Z,26.20
2018-12-15T17:27:07.077Z,25.10
2018-12-15T17:29:36.441Z,29.90
2018-12-15T17:32:06.797Z,25.90
2018-12-15T17:34:35.054Z,25.87
2018-12-15T17:37:04.089Z,28.20
2018-12-15T17:39:33.511Z,31.93
2018-12-15T17:42:03.619Z,28.70
2018-12-15T17:44:36.201Z,27.10
2018-12-15T17:47:05.159Z,29.07
2018-12-15T17:49:33.615Z,27.77
2018-12-15T17:52:02.519Z,29.00
2018-12-15T17:54:31.773Z,31.43
2018-12-15T17:57:01.432Z,27.63
2018-12-15T17:59:33.249Z,26.20
2018-12-15T18:02:02.044Z,26.73
2018-12-15T18:04:30.481Z,29.23
2018-12-15T18:06:59.132Z,28.80
2018-12-15T18:09:27.622Z,27.50
2018-12-15T18:11:55.993Z,27.17
2018-12-15T18:14:24.631Z,24.87
2018-12-15T18:16:53.529Z,28.00
2018-12-15T18:19:22.369Z,23.50
2018-12-15T18:21:50.989Z,25.07
2018-12-15T18:24:19.328Z,27.87
2018-12-15T18:26:47.572Z,23.83
2018-12-15T18:32:16.102Z,27.50
2018-12-15T18:34:44.629Z,25.47
2018-12-15T18:37:12.962Z,26.23
2018-12-15T18:39:41.349Z,26.77
2018-12-15T18:42:11.000Z,27.63
2018-12-15T18:44:39.600Z,27.77
2018-12-15T18:47:07.973Z,25.13
2018-12-15T18:49:36.295Z,31.47
2018-12-15T18:52:04.768Z,27.90
2018-12-15T18:54:34.121Z,23.50
2018-12-15T18:57:02.837Z,28.07
2018-12-15T18:59:31.218Z,25.97
2018-12-15T19:01:59.451Z,28.07
2018-12-15T19:04:27.806Z,24.70
2018-12-15T19:06:56.542Z,27.20
2018-12-15T19:09:25.000Z,25.00
2018-12-15T19:11:53.303Z,23.07
2018-12-15T19:14:21.706Z,25.00
2018-12-15T19:16:50.079Z,24.90
2018-12-15T19:19:18.704Z,22.40
2018-12-15T19:24:25.563Z,25.30
2018-12-15T19:26:53.982Z,25.80
2018-12-15T19:29:22.330Z,24.70
2018-12-15T19:31:50.906Z,27.13
2018-12-15T19:34:19.161Z,22.93
2018-12-15T19:36:47.434Z,23.13
2018-12-15T19:39:15.823Z,24.80
2018-12-15T19:41:44.200Z,22.57
2018-12-15T19:44:12.469Z,26.87
2018-12-15T19:46:40.787Z,27.30
2018-12-15T19:49:09.026Z,26.63
2018-12-15T19:51:37.217Z,26.70
2018-12-15T19:54:05.505Z,21.97
2018-12-15T19:56:34.879Z,25.03
2018-12-15T19:59:03.359Z,24.63
2018-12-15T20:01:31.776Z,28.27
2018-12-15T20:04:00.216Z,25.20
2018-12-15T20:06:28.623Z,25.77
2018-12-15T20:08:56.901Z,24.47
2018-12-15T20:11:25.593Z,25.60
2018-12-15T20:13:53.925Z,22.80
2018-12-15T20:16:22.351Z,24.73
2018-12-15T20:18:51.106Z,27.10
2018-12-15T20:21:19.354Z,28.17
2018-12-15T20:23:47.625Z,27.67
2018-12-15T20:26:16.030Z,26.37
2018-12-15T20:28:44.294Z,30.90
2018-12-15T20:31:12.561Z,27.10
2018-12-15T20:33:40.947Z,24.60
2018-12-15T20:36:09.231Z,28.20
2018-12-15T20:38:37.554Z,27.57
2018-12-15T20:43:46.611Z,24.70
2018-12-15T20:46:14.892Z,25.10
2018-12-15T20:48:43.221Z,26.40
2018-12-15T20:51:11.462Z,28.60
2018-12-15T20:53:39.971Z,27.50
2018-12-15T20:56:08.231Z,25.57
2018-12-15T20:58:36.447Z,27.43
2018-12-15T21:01:05.909Z,29.60
2018-12-15T21:03:34.282Z,28.10
2018-12-15T21:06:02.542Z,25.93
2018-12-15T21:08:30.950Z,27.03
2018-12-15T21:10:59.252Z,25.60
2018-12-15T21:13:27.569Z,28.03
2018-12-15T21:15:58.099Z,27.43
2018-12-15T21:18:26.855Z,30.90
2018-12-15T21:20:55.124Z,27.30
2018-12-15T21:23:23.488Z,27.13
2018-12-15T21:25:51.762Z,26.27
2018-12-15T21:28:20.114Z,25.83
2018-12-15T21:30:55.240Z,27.10
2018-12-15T21:33:24.493Z,30.93
2018-12-15T21:35:52.822Z,27.03
2018-12-15T21:38:21.575Z,30.33
2018-12-15T21:40:49.902Z,28.03
2018-12-15T21:43:18.218Z,29.90
2018-12-15T21:45:46.557Z,30.17
2018-12-15T21:48:14.999Z,24.47
2018-12-15T21:50:43.605Z,31.17
2018-12-15T21:53:11.841Z,29.13
2018-12-15T21:55:40.188Z,28.93
2018-12-15T21:58:08.502Z,31.77
2018-12-15T22:00:36.833Z,29.10
2018-12-15T22:03:05.386Z,27.20
2018-12-15T22:08:12.965Z,24.60
2018-12-15T22:10:41.315Z,28.00
2018-12-15T22:13:09.632Z,29.13
2018-12-15T22:15:38.046Z,25.03
2018-12-15T22:18:08.061Z,27.60
2018-12-15T22:20:36.867Z,25.97
2018-12-15T22:23:05.805Z,24.10
2018-12-15T22:25:34.195Z,29.20
2018-12-15T22:28:02.532Z,35.93
2018-12-15T22:30:30.952Z,27.40
2018-12-15T22:32:59.379Z,30.43
2018-12-15T22:35:27.826Z,30.30
2018-12-15T22:37:56.205Z,33.40
2018-12-15T22:40:24.677Z,31.77
2018-12-15T22:42:53.240Z,32.33
2018-12-15T22:45:21.790Z,34.40
2018-12-15T22:47:50.212Z,30.30
2018-12-15T22:50:18.658Z,34.17
2018-12-15T22:52:46.997Z,34.33
2018-12-15T22:55:15.473Z,36.40
2018-12-15T22:57:43.849Z,37.43
2018-12-15T23:00:13.319Z,35.17
2018-12-15T23:02:41.901Z,37.63
2018-12-15T23:05:10.282Z,38.30
2018-12-15T23:07:38.807Z,38.40
2018-12-15T23:10:08.275Z,36.47
2018-12-15T23:12:36.638Z,46.23
2018-12-15T23:15:06.766Z,46.93
2018-12-15T23:17:35.177Z,45.13
2018-12-15T23:20:06.663Z,47.30
2018-12-15T23:22:35.099Z,39.57
2018-12-15T23:25:03.697Z,44.50
2018-12-15T23:27:32.143Z,47.10
2018-12-15T23:30:00.624Z,46.40
2018-12-15T23:32:29.036Z,47.40
2018-12-15T23:34:57.513Z,46.43
2018-12-15T23:37:25.833Z,45.17
2018-12-15T23:39:54.321Z,46.50
2018-12-15T23:42:22.624Z,50.90
2018-12-15T23:44:51.092Z,47.33
2018-12-15T23:47:19.590Z,46.13
2018-12-15T23:49:48.025Z,48.40
2018-12-15T23:52:23.104Z,48.40
2018-12-15T23:54:47.154Z,47.60
2018-12-15T23:57:15.523Z,46.53
2018-12-15T23:59:43.845Z,51.07
